RJTF(METAR)
07/17 15:00
METAR RJTF 170600Z 12008KT 9999 FEW030 BKN040 28/22 Q1012 RMK 1CU030
5CU040 A2990=
戻る
トップページへ戻る
IMOC Co,.Ltd.